sensor_id;sensor_type;location;lat;lon;timestamp;pressure;altitude;pressure_sealevel;temperature;humidity
76156;BME280;64906;51.290;7.348;2024-03-07T00:01:04;99525.75;;;11.66;54.18
76156;BME280;64906;51.290;7.348;2024-03-07T00:03:29;99518.88;;;11.70;54.15
76156;BME280;64906;51.290;7.348;2024-03-07T00:05:55;99520.13;;;11.67;54.16
76156;BME280;64906;51.290;7.348;2024-03-07T00:08:20;99523.88;;;11.66;54.23
76156;BME280;64906;51.290;7.348;2024-03-07T00:10:46;99512.22;;;11.66;54.28
76156;BME280;64906;51.290;7.348;2024-03-07T00:13:11;99514.69;;;11.67;54.21
76156;BME280;64906;51.290;7.348;2024-03-07T00:15:38;99525.53;;;11.67;53.99
76156;BME280;64906;51.290;7.348;2024-03-07T00:18:05;99521.16;;;11.66;53.98
76156;BME280;64906;51.290;7.348;2024-03-07T00:20:30;99534.25;;;11.63;54.31
76156;BME280;64906;51.290;7.348;2024-03-07T00:22:56;99533.03;;;11.59;54.32
76156;BME280;64906;51.290;7.348;2024-03-07T00:25:22;99526.16;;;11.63;54.22
76156;BME280;64906;51.290;7.348;2024-03-07T00:27:47;99519.91;;;11.62;54.09
76156;BME280;64906;51.290;7.348;2024-03-07T00:30:12;99520.56;;;11.64;54.14
76156;BME280;64906;51.290;7.348;2024-03-07T00:32:39;99533.25;;;11.57;54.38
76156;BME280;64906;51.290;7.348;2024-03-07T00:35:06;99535.72;;;11.59;54.39
76156;BME280;64906;51.290;7.348;2024-03-07T00:37:31;99536.78;;;11.58;54.24
76156;BME280;64906;51.290;7.348;2024-03-07T00:39:57;99536.16;;;11.56;54.23
76156;BME280;64906;51.290;7.348;2024-03-07T00:42:23;99530.31;;;11.59;54.11
76156;BME280;64906;51.290;7.348;2024-03-07T00:44:48;99530.53;;;11.57;54.25
76156;BME280;64906;51.290;7.348;2024-03-07T00:47:14;99530.16;;;11.54;54.40
76156;BME280;64906;51.290;7.348;2024-03-07T00:49:40;99526.44;;;11.48;54.41
76156;BME280;64906;51.290;7.348;2024-03-07T00:52:05;99528.72;;;11.51;54.50
76156;BME280;64906;51.290;7.348;2024-03-07T00:54:30;99530.56;;;11.51;54.37
76156;BME280;64906;51.290;7.348;2024-03-07T00:56:56;99527.66;;;11.52;54.39
76156;BME280;64906;51.290;7.348;2024-03-07T00:59:21;99527.06;;;11.50;54.55
76156;BME280;64906;51.290;7.348;2024-03-07T01:01:46;99534.56;;;11.48;54.30
76156;BME280;64906;51.290;7.348;2024-03-07T01:04:12;99529.81;;;11.44;54.48
76156;BME280;64906;51.290;7.348;2024-03-07T01:06:37;99529.59;;;11.45;54.49
76156;BME280;64906;51.290;7.348;2024-03-07T01:09:03;99536.44;;;11.41;54.58
76156;BME280;64906;51.290;7.348;2024-03-07T01:11:29;99522.31;;;11.39;54.62
76156;BME280;64906;51.290;7.348;2024-03-07T01:13:54;99531.03;;;11.41;54.40
76156;BME280;64906;51.290;7.348;2024-03-07T01:16:20;99524.44;;;11.37;54.71
76156;BME280;64906;51.290;7.348;2024-03-07T01:18:46;99519.84;;;11.38;54.53
76156;BME280;64906;51.290;7.348;2024-03-07T01:21:11;99514.88;;;11.35;54.64
76156;BME280;64906;51.290;7.348;2024-03-07T01:23:36;99523.38;;;11.38;54.61
76156;BME280;64906;51.290;7.348;2024-03-07T01:26:02;99513.84;;;11.36;54.62
76156;BME280;64906;51.290;7.348;2024-03-07T01:28:28;99510.72;;;11.32;54.68
76156;BME280;64906;51.290;7.348;2024-03-07T01:30:56;99512.38;;;11.33;54.73
76156;BME280;64906;51.290;7.348;2024-03-07T01:33:22;99519.88;;;11.31;54.79
76156;BME280;64906;51.290;7.348;2024-03-07T01:35:47;99519.88;;;11.31;54.74
76156;BME280;64906;51.290;7.348;2024-03-07T01:38:14;99510.53;;;11.27;54.73
76156;BME280;64906;51.290;7.348;2024-03-07T01:40:40;99515.53;;;11.30;54.56
76156;BME280;64906;51.290;7.348;2024-03-07T01:43:06;99508.66;;;11.28;54.66
76156;BME280;64906;51.290;7.348;2024-03-07T01:45:32;99513.66;;;11.31;54.79
76156;BME280;64906;51.290;7.348;2024-03-07T01:47:57;99510.53;;;11.27;54.63
76156;BME280;64906;51.290;7.348;2024-03-07T01:50:23;99509.94;;;11.25;54.92
76156;BME280;64906;51.290;7.348;2024-03-07T01:52:49;99506.59;;;11.23;54.75
76156;BME280;64906;51.290;7.348;2024-03-07T01:55:16;99508.66;;;11.28;54.57
76156;BME280;64906;51.290;7.348;2024-03-07T01:57:42;99504.53;;;11.25;54.71
76156;BME280;64906;51.290;7.348;2024-03-07T02:00:07;99497.47;;;11.24;54.66
76156;BME280;64906;51.290;7.348;2024-03-07T02:02:34;99502.88;;;11.24;54.69
76156;BME280;64906;51.290;7.348;2024-03-07T02:05:00;99492.69;;;11.20;55.00
76156;BME280;64906;51.290;7.348;2024-03-07T02:07:25;99490.00;;;11.20;54.91
76156;BME280;64906;51.290;7.348;2024-03-07T02:09:59;99492.47;;;11.21;54.78
76156;BME280;64906;51.290;7.348;2024-03-07T02:12:25;99492.91;;;11.18;55.06
76156;BME280;64906;51.290;7.348;2024-03-07T02:14:50;99488.56;;;11.17;54.92
76156;BME280;64906;51.290;7.348;2024-03-07T02:17:15;99491.25;;;11.17;54.82
76156;BME280;64906;51.290;7.348;2024-03-07T02:19:41;99493.34;;;11.15;54.89
76156;BME280;64906;51.290;7.348;2024-03-07T02:22:06;99490.84;;;11.14;54.92
76156;BME280;64906;51.290;7.348;2024-03-07T02:24:31;99490.41;;;11.17;54.68
76156;BME280;64906;51.290;7.348;2024-03-07T02:26:57;99484.41;;;11.15;54.91
76156;BME280;64906;51.290;7.348;2024-03-07T02:29:24;99496.03;;;11.15;55.07
76156;BME280;64906;51.290;7.348;2024-03-07T02:31:49;99493.13;;;11.17;54.84
76156;BME280;64906;51.290;7.348;2024-03-07T02:34:15;99483.41;;;11.09;54.98
76156;BME280;64906;51.290;7.348;2024-03-07T02:36:41;99470.91;;;11.08;54.83
76156;BME280;64906;51.290;7.348;2024-03-07T02:39:07;99475.50;;;11.08;55.08
76156;BME280;64906;51.290;7.348;2024-03-07T02:41:32;99484.63;;;11.13;55.05
76156;BME280;64906;51.290;7.348;2024-03-07T02:43:59;99485.22;;;11.15;55.05
76156;BME280;64906;51.290;7.348;2024-03-07T02:46:26;99482.13;;;11.12;54.91
76156;BME280;64906;51.290;7.348;2024-03-07T02:48:51;99484.44;;;11.08;55.00
76156;BME280;64906;51.290;7.348;2024-03-07T02:51:17;99483.63;;;11.08;55.16
76156;BME280;64906;51.290;7.348;2024-03-07T02:53:42;99478.00;;;11.09;55.01
76156;BME280;64906;51.290;7.348;2024-03-07T02:56:07;99473.03;;;11.06;55.17
76156;BME280;64906;51.290;7.348;2024-03-07T02:58:33;99466.78;;;11.06;54.99
76156;BME280;64906;51.290;7.348;2024-03-07T03:00:59;99467.63;;;11.06;54.84
76156;BME280;64906;51.290;7.348;2024-03-07T03:03:31;99464.09;;;11.06;55.08
76156;BME280;64906;51.290;7.348;2024-03-07T03:05:57;99462.00;;;11.08;55.03
76156;BME280;64906;51.290;7.348;2024-03-07T03:08:22;99458.28;;;11.02;55.10
76156;BME280;64906;51.290;7.348;2024-03-07T03:10:48;99457.66;;;11.00;55.16
76156;BME280;64906;51.290;7.348;2024-03-07T03:13:16;99451.63;;;11.05;55.04
76156;BME280;64906;51.290;7.348;2024-03-07T03:15:42;99451.22;;;11.01;54.91
76156;BME280;64906;51.290;7.348;2024-03-07T03:18:07;99456.22;;;10.98;55.05
76156;BME280;64906;51.290;7.348;2024-03-07T03:20:32;99450.59;;;10.99;55.15
76156;BME280;64906;51.290;7.348;2024-03-07T03:23:04;99449.78;;;10.99;55.07
76156;BME280;64906;51.290;7.348;2024-03-07T03:25:38;99447.06;;;10.99;55.19
76156;BME280;64906;51.290;7.348;2024-03-07T03:28:07;99440.44;;;11.01;55.21
76156;BME280;64906;51.290;7.348;2024-03-07T03:30:38;99449.78;;;10.99;54.85
76156;BME280;64906;51.290;7.348;2024-03-07T03:33:04;99439.41;;;10.96;55.08
76156;BME280;64906;51.290;7.348;2024-03-07T03:35:31;99441.88;;;10.97;55.23
76156;BME280;64906;51.290;7.348;2024-03-07T03:37:56;99440.47;;;10.95;55.22
76156;BME280;64906;51.290;7.348;2024-03-07T03:40:21;99439.19;;;10.97;55.17
76156;BME280;64906;51.290;7.348;2024-03-07T03:42:47;99437.53;;;10.96;55.11
76156;BME280;64906;51.290;7.348;2024-03-07T03:45:13;99440.69;;;10.93;55.12
76156;BME280;64906;51.290;7.348;2024-03-07T03:47:41;99436.09;;;10.94;55.21
76156;BME280;64906;51.290;7.348;2024-03-07T03:50:08;99443.97;;;10.95;55.12
76156;BME280;64906;51.290;7.348;2024-03-07T03:52:34;99437.13;;;10.93;55.24
76156;BME280;64906;51.290;7.348;2024-03-07T03:55:05;99432.56;;;10.93;55.03
76156;BME280;64906;51.290;7.348;2024-03-07T03:57:31;99437.78;;;10.88;55.40
76156;BME280;64906;51.290;7.348;2024-03-07T03:59:57;99434.03;;;10.89;55.26
76156;BME280;64906;51.290;7.348;2024-03-07T04:02:22;99428.00;;;10.87;55.34
76156;BME280;64906;51.290;7.348;2024-03-07T04:04:51;99431.34;;;10.89;55.19
76156;BME280;64906;51.290;7.348;2024-03-07T04:07:18;99424.88;;;10.90;55.07
76156;BME280;64906;51.290;7.348;2024-03-07T04:09:44;99443.19;;;10.88;55.15
76156;BME280;64906;51.290;7.348;2024-03-07T04:12:10;99436.72;;;10.89;55.16
76156;BME280;64906;51.290;7.348;2024-03-07T04:14:42;99437.38;;;10.84;55.23
76156;BME280;64906;51.290;7.348;2024-03-07T04:17:09;99435.53;;;10.78;55.46
76156;BME280;64906;51.290;7.348;2024-03-07T04:19:40;99432.44;;;10.75;55.49
76156;BME280;64906;51.290;7.348;2024-03-07T04:22:05;99432.44;;;10.75;55.56
76156;BME280;64906;51.290;7.348;2024-03-07T04:24:31;99436.16;;;10.74;55.46
76156;BME280;64906;51.290;7.348;2024-03-07T04:27:04;99434.91;;;10.83;55.08
76156;BME280;64906;51.290;7.348;2024-03-07T04:29:33;99432.63;;;10.80;55.16
76156;BME280;64906;51.290;7.348;2024-03-07T04:31:59;99425.97;;;10.76;55.27
76156;BME280;64906;51.290;7.348;2024-03-07T04:34:26;99428.03;;;10.80;55.34
76156;BME280;64906;51.290;7.348;2024-03-07T04:36:52;99428.88;;;10.81;55.16
76156;BME280;64906;51.290;7.348;2024-03-07T04:39:17;99426.41;;;10.79;55.35
76156;BME280;64906;51.290;7.348;2024-03-07T04:42:08;99429.94;;;10.80;55.31
76156;BME280;64906;51.290;7.348;2024-03-07T04:44:34;99420.38;;;10.77;55.22
76156;BME280;64906;51.290;7.348;2024-03-07T04:47:04;99419.34;;;10.78;55.08
76156;BME280;64906;51.290;7.348;2024-03-07T04:49:31;99421.22;;;10.78;55.12
76156;BME280;64906;51.290;7.348;2024-03-07T04:51:58;99422.06;;;10.72;55.40
76156;BME280;64906;51.290;7.348;2024-03-07T04:54:24;99421.25;;;10.71;55.29
76156;BME280;64906;51.290;7.348;2024-03-07T04:56:51;99422.22;;;10.77;55.07
76156;BME280;64906;51.290;7.348;2024-03-07T04:59:18;99423.72;;;10.73;55.32
76156;BME280;64906;51.290;7.348;2024-03-07T05:01:44;99420.63;;;10.69;55.18
76156;BME280;64906;51.290;7.348;2024-03-07T05:04:11;99425.59;;;10.72;55.36
76156;BME280;64906;51.290;7.348;2024-03-07T05:06:37;99426.00;;;10.69;55.62
76156;BME280;64906;51.290;7.348;2024-03-07T05:09:04;99424.78;;;10.72;55.22
76156;BME280;64906;51.290;7.348;2024-03-07T05:11:30;99416.47;;;10.67;55.31
76156;BME280;64906;51.290;7.348;2024-03-07T05:13:56;99420.00;;;10.67;55.40
76156;BME280;64906;51.290;7.348;2024-03-07T05:16:22;99423.72;;;10.73;55.15
76156;BME280;64906;51.290;7.348;2024-03-07T05:18:48;99424.19;;;10.63;55.45
76156;BME280;64906;51.290;7.348;2024-03-07T05:21:15;99419.78;;;10.69;55.29
76156;BME280;64906;51.290;7.348;2024-03-07T05:24:03;99415.88;;;10.65;55.34
76156;BME280;64906;51.290;7.348;2024-03-07T05:26:29;99420.22;;;10.66;55.28
76156;BME280;64906;51.290;7.348;2024-03-07T05:29:04;99418.34;;;10.66;55.45
76156;BME280;64906;51.290;7.348;2024-03-07T05:31:33;99425.59;;;10.66;55.39
76156;BME280;64906;51.290;7.348;2024-03-07T05:34:03;99424.59;;;10.67;55.10
76156;BME280;64906;51.290;7.348;2024-03-07T05:36:32;99419.00;;;10.62;55.42
76156;BME280;64906;51.290;7.348;2024-03-07T05:38:58;99423.78;;;10.60;55.26
76156;BME280;64906;51.290;7.348;2024-03-07T05:41:23;99424.19;;;10.57;55.50
76156;BME280;64906;51.290;7.348;2024-03-07T05:43:48;99427.13;;;10.55;55.64
76156;BME280;64906;51.290;7.348;2024-03-07T05:46:16;99426.69;;;10.58;55.46
76156;BME280;64906;51.290;7.348;2024-03-07T05:48:41;99427.09;;;10.62;55.28
76156;BME280;64906;51.290;7.348;2024-03-07T05:51:07;99428.34;;;10.59;55.43
76156;BME280;64906;51.290;7.348;2024-03-07T05:53:32;99431.25;;;10.58;55.65
76156;BME280;64906;51.290;7.348;2024-03-07T05:55:57;99423.34;;;10.56;55.43
76156;BME280;64906;51.290;7.348;2024-03-07T05:58:22;99431.25;;;10.58;55.41
76156;BME280;64906;51.290;7.348;2024-03-07T06:00:48;99435.00;;;10.57;55.58
76156;BME280;64906;51.290;7.348;2024-03-07T06:03:17;99426.28;;;10.55;55.61
76156;BME280;64906;51.290;7.348;2024-03-07T06:05:43;99428.75;;;10.56;55.40
76156;BME280;64906;51.290;7.348;2024-03-07T06:08:09;99430.00;;;10.60;55.41
76156;BME280;64906;51.290;7.348;2024-03-07T06:10:34;99430.19;;;10.59;55.36
76156;BME280;64906;51.290;7.348;2024-03-07T06:12:59;99425.84;;;10.58;55.24
76156;BME280;64906;51.290;7.348;2024-03-07T06:15:24;99427.72;;;10.57;55.34
76156;BME280;64906;51.290;7.348;2024-03-07T06:17:50;99430.19;;;10.59;55.32
76156;BME280;64906;51.290;7.348;2024-03-07T06:20:15;99429.59;;;10.57;55.47
76156;BME280;64906;51.290;7.348;2024-03-07T06:22:48;99436.22;;;10.61;55.36
76156;BME280;64906;51.290;7.348;2024-03-07T06:25:18;99434.16;;;10.56;55.38
76156;BME280;64906;51.290;7.348;2024-03-07T06:27:59;99434.38;;;10.55;55.54
76156;BME280;64906;51.290;7.348;2024-03-07T06:30:33;99437.28;;;10.60;55.25
76156;BME280;64906;51.290;7.348;2024-03-07T06:32:58;99426.69;;;10.58;55.18
76156;BME280;64906;51.290;7.348;2024-03-07T06:35:24;99431.03;;;10.59;55.24
76156;BME280;64906;51.290;7.348;2024-03-07T06:37:49;99429.97;;;10.67;54.96
76156;BME280;64906;51.290;7.348;2024-03-07T06:40:14;99433.94;;;10.58;55.35
76156;BME280;64906;51.290;7.348;2024-03-07T06:42:46;99432.88;;;10.59;55.00
76156;BME280;64906;51.290;7.348;2024-03-07T06:45:11;99439.53;;;10.63;55.06
76156;BME280;64906;51.290;7.348;2024-03-07T06:47:37;99432.91;;;10.65;55.15
76156;BME280;64906;51.290;7.348;2024-03-07T06:50:03;99434.75;;;10.65;54.94
76156;BME280;64906;51.290;7.348;2024-03-07T06:52:28;99433.28;;;10.69;55.00
76156;BME280;64906;51.290;7.348;2024-03-07T06:54:53;99425.38;;;10.67;54.82
76156;BME280;64906;51.290;7.348;2024-03-07T06:57:19;99436.38;;;10.72;54.76
76156;BME280;64906;51.290;7.348;2024-03-07T06:59:44;99444.88;;;10.76;54.83
76156;BME280;64906;51.290;7.348;2024-03-07T07:02:09;99435.13;;;10.75;54.63
76156;BME280;64906;51.290;7.348;2024-03-07T07:04:35;99439.50;;;10.76;54.64
76156;BME280;64906;51.290;7.348;2024-03-07T07:07:10;99431.59;;;10.74;54.56
76156;BME280;64906;51.290;7.348;2024-03-07T07:09:38;99436.56;;;10.77;54.67
76156;BME280;64906;51.290;7.348;2024-03-07T07:12:03;99437.19;;;10.79;54.51
76156;BME280;64906;51.290;7.348;2024-03-07T07:14:29;99436.97;;;10.81;54.30
76156;BME280;64906;51.290;7.348;2024-03-07T07:16:55;99444.03;;;10.82;54.28
76156;BME280;64906;51.290;7.348;2024-03-07T07:19:21;99440.50;;;10.81;54.48
76156;BME280;64906;51.290;7.348;2024-03-07T07:21:47;99437.19;;;10.79;54.48
76156;BME280;64906;51.290;7.348;2024-03-07T07:24:14;99450.69;;;10.79;54.60
76156;BME280;64906;51.290;7.348;2024-03-07T07:26:40;99438.63;;;10.82;54.33
76156;BME280;64906;51.290;7.348;2024-03-07T07:29:05;99439.91;;;10.79;54.61
76156;BME280;64906;51.290;7.348;2024-03-07T07:31:30;99445.91;;;10.81;54.23
76156;BME280;64906;51.290;7.348;2024-03-07T07:33:57;99441.09;;;10.83;54.32
76156;BME280;64906;51.290;7.348;2024-03-07T07:36:23;99443.00;;;10.83;54.32
76156;BME280;64906;51.290;7.348;2024-03-07T07:38:48;99434.47;;;10.86;54.22
76156;BME280;64906;51.290;7.348;2024-03-07T07:41:13;99439.03;;;10.85;54.13
76156;BME280;64906;51.290;7.348;2024-03-07T07:43:40;99439.00;;;10.92;54.20
76156;BME280;64906;51.290;7.348;2024-03-07T07:46:05;99443.63;;;10.85;54.09
76156;BME280;64906;51.290;7.348;2024-03-07T07:48:31;99438.38;;;10.90;54.10
76156;BME280;64906;51.290;7.348;2024-03-07T07:50:56;99425.72;;;10.91;54.10
76156;BME280;64906;51.290;7.348;2024-03-07T07:53:22;99419.06;;;10.93;53.94
76156;BME280;64906;51.290;7.348;2024-03-07T07:55:47;99425.28;;;10.94;53.97
76156;BME280;64906;51.290;7.348;2024-03-07T07:58:14;99414.69;;;10.92;53.80
76156;BME280;64906;51.290;7.348;2024-03-07T08:00:39;99404.94;;;10.91;53.93
76156;BME280;64906;51.290;7.348;2024-03-07T08:03:05;99407.81;;;10.96;53.82
76156;BME280;64906;51.290;7.348;2024-03-07T08:05:35;99405.75;;;10.98;53.87
76156;BME280;64906;51.290;7.348;2024-03-07T08:08:05;99400.34;;;10.98;53.89
76156;BME280;64906;51.290;7.348;2024-03-07T08:10:33;99402.81;;;11.00;53.81
76156;BME280;64906;51.290;7.348;2024-03-07T08:13:00;99403.63;;;11.00;53.68
76156;BME280;64906;51.290;7.348;2024-03-07T08:15:26;99403.63;;;11.00;53.63
76156;BME280;64906;51.290;7.348;2024-03-07T08:17:53;99398.19;;;11.07;53.49
76156;BME280;64906;51.290;7.348;2024-03-07T08:20:20;99400.84;;;11.13;53.44
76156;BME280;64906;51.290;7.348;2024-03-07T08:22:46;99398.16;;;11.13;53.18
76156;BME280;64906;51.290;7.348;2024-03-07T08:25:15;99399.38;;;11.17;53.14
76156;BME280;64906;51.290;7.348;2024-03-07T08:27:42;99401.66;;;11.20;53.30
76156;BME280;64906;51.290;7.348;2024-03-07T08:30:09;99397.84;;;11.28;53.09
76156;BME280;64906;51.290;7.348;2024-03-07T08:32:41;99397.66;;;11.29;52.87
76156;BME280;64906;51.290;7.348;2024-03-07T08:35:08;99395.53;;;11.31;52.77
76156;BME280;64906;51.290;7.348;2024-03-07T08:37:41;99398.63;;;11.35;52.80
76156;BME280;64906;51.290;7.348;2024-03-07T08:40:08;99400.50;;;11.34;52.83
76156;BME280;64906;51.290;7.348;2024-03-07T08:42:37;99410.47;;;11.40;52.83
76156;BME280;64906;51.290;7.348;2024-03-07T08:45:04;99408.16;;;11.44;52.54
76156;BME280;64906;51.290;7.348;2024-03-07T08:47:33;99409.13;;;11.49;52.19
76156;BME280;64906;51.290;7.348;2024-03-07T08:49:59;99395.03;;;11.47;52.18
76156;BME280;64906;51.290;7.348;2024-03-07T08:52:25;99402.03;;;11.55;52.24
76156;BME280;64906;51.290;7.348;2024-03-07T08:54:51;99399.09;;;11.56;52.21
76156;BME280;64906;51.290;7.348;2024-03-07T08:57:16;99397.41;;;11.62;52.08
76156;BME280;64906;51.290;7.348;2024-03-07T08:59:43;99396.78;;;11.66;51.95
76156;BME280;64906;51.290;7.348;2024-03-07T09:02:09;99403.16;;;11.72;51.84
76156;BME280;64906;51.290;7.348;2024-03-07T09:04:35;99398.75;;;11.77;51.67
76156;BME280;64906;51.290;7.348;2024-03-07T09:07:01;99395.81;;;11.79;51.62
76156;BME280;64906;51.290;7.348;2024-03-07T09:09:26;99392.66;;;11.82;51.34
76156;BME280;64906;51.290;7.348;2024-03-07T09:11:52;99389.09;;;11.88;51.19
76156;BME280;64906;51.290;7.348;2024-03-07T09:14:17;99385.34;;;11.89;51.40
76156;BME280;64906;51.290;7.348;2024-03-07T09:16:42;99387.13;;;11.95;51.06
76156;BME280;64906;51.290;7.348;2024-03-07T09:19:09;99393.16;;;11.97;51.09
76156;BME280;64906;51.290;7.348;2024-03-07T09:21:39;99387.91;;;12.02;50.99
76156;BME280;64906;51.290;7.348;2024-03-07T09:24:05;99383.72;;;12.06;50.91
76156;BME280;64906;51.290;7.348;2024-03-07T09:26:31;99384.69;;;12.11;50.66
76156;BME280;64906;51.290;7.348;2024-03-07T09:28:57;99386.38;;;12.12;50.71
76156;BME280;64906;51.290;7.348;2024-03-07T09:31:22;99384.84;;;12.16;50.51
76156;BME280;64906;51.290;7.348;2024-03-07T09:33:47;99381.91;;;12.18;50.50
76156;BME280;64906;51.290;7.348;2024-03-07T09:36:14;99383.13;;;12.22;50.42
76156;BME280;64906;51.290;7.348;2024-03-07T09:38:39;99384.78;;;12.23;50.36
76156;BME280;64906;51.290;7.348;2024-03-07T09:41:06;99373.72;;;12.25;50.44
76156;BME280;64906;51.290;7.348;2024-03-07T09:43:33;99372.25;;;12.29;50.26
76156;BME280;64906;51.290;7.348;2024-03-07T09:46:00;99377.19;;;12.32;50.19
76156;BME280;64906;51.290;7.348;2024-03-07T09:48:27;99371.94;;;12.37;50.00
76156;BME280;64906;51.290;7.348;2024-03-07T09:50:55;99379.59;;;12.40;50.05
76156;BME280;64906;51.290;7.348;2024-03-07T09:53:24;99374.19;;;12.40;49.91
76156;BME280;64906;51.290;7.348;2024-03-07T09:55:52;99369.16;;;12.43;49.82
76156;BME280;64906;51.290;7.348;2024-03-07T09:58:19;99372.00;;;12.48;49.68
76156;BME280;64906;51.290;7.348;2024-03-07T10:00:45;99375.56;;;12.49;49.69
76156;BME280;64906;51.290;7.348;2024-03-07T10:03:12;99368.84;;;12.51;49.76
76156;BME280;64906;51.290;7.348;2024-03-07T10:05:41;99367.13;;;12.57;49.45
76156;BME280;64906;51.290;7.348;2024-03-07T10:08:06;99370.72;;;12.51;49.54
76156;BME280;64906;51.290;7.348;2024-03-07T10:10:32;99365.28;;;12.51;49.74
76156;BME280;64906;51.290;7.348;2024-03-07T10:12:58;99364.72;;;12.49;49.69
76156;BME280;64906;51.290;7.348;2024-03-07T10:15:30;99367.44;;;12.49;49.66
76156;BME280;64906;51.290;7.348;2024-03-07T10:17:56;99371.56;;;12.51;49.75
76156;BME280;64906;51.290;7.348;2024-03-07T10:20:21;99362.75;;;12.56;49.66
76156;BME280;64906;51.290;7.348;2024-03-07T10:22:47;99361.84;;;12.62;49.50
76156;BME280;64906;51.290;7.348;2024-03-07T10:25:17;99362.00;;;12.67;49.25
76156;BME280;64906;51.290;7.348;2024-03-07T10:27:42;99362.72;;;12.74;49.18
76156;BME280;64906;51.290;7.348;2024-03-07T10:30:09;99350.38;;;12.78;49.12
76156;BME280;64906;51.290;7.348;2024-03-07T10:32:35;99354.72;;;12.79;49.03
76156;BME280;64906;51.290;7.348;2024-03-07T10:35:01;99352.03;;;12.79;49.06
76156;BME280;64906;51.290;7.348;2024-03-07T10:37:28;99352.31;;;12.89;48.81
76156;BME280;64906;51.290;7.348;2024-03-07T10:39:54;99346.53;;;12.85;48.95
76156;BME280;64906;51.290;7.348;2024-03-07T10:42:20;99345.97;;;12.95;48.45
76156;BME280;64906;51.290;7.348;2024-03-07T10:44:49;99341.00;;;12.92;48.60
76156;BME280;64906;51.290;7.348;2024-03-07T10:47:19;99338.66;;;12.95;48.63
76156;BME280;64906;51.290;7.348;2024-03-07T10:52:40;99333.84;;;12.97;48.43
76156;BME280;64906;51.290;7.348;2024-03-07T10:55:34;99338.50;;;13.08;48.24
76156;BME280;64906;51.290;7.348;2024-03-07T10:58:08;99336.50;;;13.04;48.37
76156;BME280;64906;51.290;7.348;2024-03-07T11:00:37;99338.28;;;13.10;48.19
76156;BME280;64906;51.290;7.348;2024-03-07T11:03:11;99335.47;;;13.16;48.08
76156;BME280;64906;51.290;7.348;2024-03-07T11:05:36;99330.16;;;13.10;48.27
76156;BME280;64906;51.290;7.348;2024-03-07T11:08:03;99325.56;;;13.10;48.23
76156;BME280;64906;51.290;7.348;2024-03-07T11:10:36;99329.34;;;13.21;48.10
76156;BME280;64906;51.290;7.348;2024-03-07T11:13:03;99316.03;;;13.19;47.96
76156;BME280;64906;51.290;7.348;2024-03-07T11:15:30;99314.38;;;13.18;48.12
76156;BME280;64906;51.290;7.348;2024-03-07T11:17:56;99318.06;;;13.24;48.14
76156;BME280;64906;51.290;7.348;2024-03-07T11:20:22;99308.84;;;13.25;47.95
76156;BME280;64906;51.290;7.348;2024-03-07T11:22:49;99306.16;;;13.25;47.85
76156;BME280;64906;51.290;7.348;2024-03-07T11:25:21;99306.38;;;13.23;47.92
76156;BME280;64906;51.290;7.348;2024-03-07T11:27:55;99307.44;;;13.34;47.74
76156;BME280;64906;51.290;7.348;2024-03-07T11:30:22;99301.47;;;13.43;47.52
76156;BME280;64906;51.290;7.348;2024-03-07T11:32:48;99303.22;;;13.38;47.62
76156;BME280;64906;51.290;7.348;2024-03-07T11:35:19;99298.50;;;13.33;47.67
76156;BME280;64906;51.290;7.348;2024-03-07T11:37:56;99301.56;;;13.37;47.74
76156;BME280;64906;51.290;7.348;2024-03-07T11:42:48;99287.78;;;13.38;47.59
76156;BME280;64906;51.290;7.348;2024-03-07T11:45:15;99291.91;;;13.41;47.54
76156;BME280;64906;51.290;7.348;2024-03-07T11:47:58;99286.47;;;13.41;47.58
76156;BME280;64906;51.290;7.348;2024-03-07T11:50:33;99284.94;;;13.33;48.04
76156;BME280;64906;51.290;7.348;2024-03-07T11:53:03;99283.88;;;13.34;47.86
76156;BME280;64906;51.290;7.348;2024-03-07T11:55:32;99276.56;;;13.35;47.65
76156;BME280;64906;51.290;7.348;2024-03-07T12:00:42;99276.00;;;13.44;47.68
76156;BME280;64906;51.290;7.348;2024-03-07T12:03:19;99265.75;;;13.46;47.60
76156;BME280;64906;51.290;7.348;2024-03-07T12:05:48;99267.63;;;13.46;47.67
76156;BME280;64906;51.290;7.348;2024-03-07T12:08:14;99260.56;;;13.45;47.46
76156;BME280;64906;51.290;7.348;2024-03-07T12:10:42;99257.13;;;13.38;47.79
76156;BME280;64906;51.290;7.348;2024-03-07T12:13:11;99262.88;;;13.30;47.83
76156;BME280;64906;51.290;7.348;2024-03-07T12:15:38;99262.53;;;13.26;47.99
76156;BME280;64906;51.290;7.348;2024-03-07T12:18:04;99258.97;;;13.26;47.98
76156;BME280;64906;51.290;7.348;2024-03-07T12:20:37;99261.38;;;13.22;48.19
76156;BME280;64906;51.290;7.348;2024-03-07T12:23:04;99251.44;;;13.16;48.32
76156;BME280;64906;51.290;7.348;2024-03-07T12:25:40;99246.34;;;13.08;48.36
76156;BME280;64906;51.290;7.348;2024-03-07T12:28:07;99250.38;;;13.06;48.55
76156;BME280;64906;51.290;7.348;2024-03-07T12:30:47;99249.38;;;13.00;48.73
76156;BME280;64906;51.290;7.348;2024-03-07T12:33:13;99242.75;;;12.96;48.73
76156;BME280;64906;51.290;7.348;2024-03-07T12:35:48;99251.72;;;12.97;48.74
76156;BME280;64906;51.290;7.348;2024-03-07T12:38:15;99247.84;;;12.93;48.71
76156;BME280;64906;51.290;7.348;2024-03-07T12:40:42;99243.00;;;12.95;48.84
76156;BME280;64906;51.290;7.348;2024-03-07T12:43:17;99237.34;;;12.96;48.55
76156;BME280;64906;51.290;7.348;2024-03-07T12:45:53;99233.75;;;13.02;48.76
76156;BME280;64906;51.290;7.348;2024-03-07T12:48:19;99229.13;;;13.03;48.76
76156;BME280;64906;51.290;7.348;2024-03-07T12:50:47;99228.09;;;13.04;48.71
76156;BME280;64906;51.290;7.348;2024-03-07T12:53:22;99228.88;;;12.93;48.82
76156;BME280;64906;51.290;7.348;2024-03-07T12:55:47;99230.75;;;12.92;48.83
76156;BME280;64906;51.290;7.348;2024-03-07T12:58:13;99220.63;;;12.88;48.86
76156;BME280;64906;51.290;7.348;2024-03-07T13:00:41;99222.72;;;12.86;48.94
76156;BME280;64906;51.290;7.348;2024-03-07T13:03:08;99229.31;;;12.90;48.98
76156;BME280;64906;51.290;7.348;2024-03-07T13:05:37;99217.44;;;12.91;48.98
76156;BME280;64906;51.290;7.348;2024-03-07T13:08:06;99218.47;;;12.90;50.36